sensor_id;sensor_type;location;lat;lon;timestamp;pressure;altitude;pressure_sealevel;temperature;humidity
62201;BME280;48197;42.732;27.192;2022-08-20T00:01:03;99275.78;;;20.14;90.94
62201;BME280;48197;42.732;27.192;2022-08-20T00:03:31;99275.56;;;20.18;91.32
62201;BME280;48197;42.732;27.192;2022-08-20T00:06:03;99275.88;;;20.20;91.66
62201;BME280;48197;42.732;27.192;2022-08-20T00:08:30;99280.22;;;20.21;92.02
62201;BME280;48197;42.732;27.192;2022-08-20T00:10:57;99281.00;;;20.22;92.41
62201;BME280;48197;42.732;27.192;2022-08-20T00:13:35;99281.97;;;20.18;92.66
62201;BME280;48197;42.732;27.192;2022-08-20T00:16:03;99284.19;;;20.14;93.00
62201;BME280;48197;42.732;27.192;2022-08-20T00:18:29;99280.00;;;20.10;93.08
62201;BME280;48197;42.732;27.192;2022-08-20T00:20:56;99282.72;;;20.04;93.38
62201;BME280;48197;42.732;27.192;2022-08-20T00:23:23;99280.56;;;19.99;93.56
62201;BME280;48197;42.732;27.192;2022-08-20T00:25:50;99277.97;;;19.95;93.42
62201;BME280;48197;42.732;27.192;2022-08-20T00:28:17;99282.22;;;19.91;93.52
62201;BME280;48197;42.732;27.192;2022-08-20T00:30:44;99273.69;;;19.85;93.77
62201;BME280;48197;42.732;27.192;2022-08-20T00:33:12;99271.03;;;19.82;93.97
62201;BME280;48197;42.732;27.192;2022-08-20T00:35:40;99273.56;;;19.79;94.37
62201;BME280;48197;42.732;27.192;2022-08-20T00:38:08;99269.69;;;19.77;94.50
62201;BME280;48197;42.732;27.192;2022-08-20T00:40:40;99265.50;;;19.72;94.84
62201;BME280;48197;42.732;27.192;2022-08-20T00:43:22;99265.66;;;19.69;94.91
62201;BME280;48197;42.732;27.192;2022-08-20T00:45:50;99255.59;;;19.62;94.94
62201;BME280;48197;42.732;27.192;2022-08-20T00:48:22;99247.66;;;19.61;95.24
62201;BME280;48197;42.732;27.192;2022-08-20T00:50:50;99246.41;;;19.62;95.36
62201;BME280;48197;42.732;27.192;2022-08-20T00:53:16;99248.16;;;19.59;95.41
62201;BME280;48197;42.732;27.192;2022-08-20T00:55:45;99250.94;;;19.59;95.57
62201;BME280;48197;42.732;27.192;2022-08-20T00:58:11;99243.97;;;19.54;95.81
62201;BME280;48197;42.732;27.192;2022-08-20T01:00:40;99244.25;;;19.56;95.90
62201;BME280;48197;42.732;27.192;2022-08-20T01:03:08;99241.81;;;19.49;95.78
62201;BME280;48197;42.732;27.192;2022-08-20T01:05:36;99241.34;;;19.51;95.89
62201;BME280;48197;42.732;27.192;2022-08-20T01:08:03;99242.28;;;19.48;95.86
62201;BME280;48197;42.732;27.192;2022-08-20T01:10:34;99241.06;;;19.49;96.29
62201;BME280;48197;42.732;27.192;2022-08-20T01:13:03;99245.88;;;19.48;96.11
62201;BME280;48197;42.732;27.192;2022-08-20T01:15:33;99243.25;;;19.45;96.15
62201;BME280;48197;42.732;27.192;2022-08-20T01:18:00;99241.41;;;19.42;96.18
62201;BME280;48197;42.732;27.192;2022-08-20T01:32:38;99234.41;;;19.37;96.51
62201;BME280;48197;42.732;27.192;2022-08-20T01:35:05;99232.22;;;19.41;96.53
62201;BME280;48197;42.732;27.192;2022-08-20T01:37:31;99226.13;;;19.43;96.44
62201;BME280;48197;42.732;27.192;2022-08-20T01:39:58;99227.69;;;19.44;96.72
62201;BME280;48197;42.732;27.192;2022-08-20T01:42:29;99228.47;;;19.44;96.87
62201;BME280;48197;42.732;27.192;2022-08-20T01:44:58;99224.41;;;19.45;97.05
62201;BME280;48197;42.732;27.192;2022-08-20T01:47:26;99227.81;;;19.49;97.06
62201;BME280;48197;42.732;27.192;2022-08-20T01:49:58;99219.69;;;19.51;97.20
62201;BME280;48197;42.732;27.192;2022-08-20T01:52:42;99225.13;;;19.55;97.00
62201;BME280;48197;42.732;27.192;2022-08-20T01:55:11;99223.09;;;19.55;96.98
62201;BME280;48197;42.732;27.192;2022-08-20T01:57:38;99212.34;;;19.54;97.03
62201;BME280;48197;42.732;27.192;2022-08-20T02:00:06;99217.19;;;19.53;97.33
62201;BME280;48197;42.732;27.192;2022-08-20T02:02:33;99214.97;;;19.57;97.65
62201;BME280;48197;42.732;27.192;2022-08-20T02:05:00;99215.75;;;19.58;97.68
62201;BME280;48197;42.732;27.192;2022-08-20T02:07:27;99221.06;;;19.56;97.74
62201;BME280;48197;42.732;27.192;2022-08-20T02:09:57;99226.88;;;19.52;97.97
62201;BME280;48197;42.732;27.192;2022-08-20T02:12:24;99215.34;;;19.50;98.19
62201;BME280;48197;42.732;27.192;2022-08-20T02:14:52;99208.94;;;19.50;98.28
62201;BME280;48197;42.732;27.192;2022-08-20T02:17:20;99218.94;;;19.51;98.19
62201;BME280;48197;42.732;27.192;2022-08-20T02:19:56;99213.31;;;19.51;98.10
62201;BME280;48197;42.732;27.192;2022-08-20T02:22:26;99219.69;;;19.51;98.12
62201;BME280;48197;42.732;27.192;2022-08-20T02:24:54;99217.19;;;19.53;97.86
62201;BME280;48197;42.732;27.192;2022-08-20T02:27:21;99208.00;;;19.53;97.75
62201;BME280;48197;42.732;27.192;2022-08-20T02:29:48;99207.41;;;19.49;97.67
62201;BME280;48197;42.732;27.192;2022-08-20T02:32:16;99209.03;;;19.41;97.94
62201;BME280;48197;42.732;27.192;2022-08-20T02:34:43;99206.69;;;19.39;98.26
62201;BME280;48197;42.732;27.192;2022-08-20T02:37:10;99209.69;;;19.35;98.36
62201;BME280;48197;42.732;27.192;2022-08-20T02:39:40;99209.69;;;19.35;98.57
62201;BME280;48197;42.732;27.192;2022-08-20T02:42:07;99210.00;;;19.37;98.60
62201;BME280;48197;42.732;27.192;2022-08-20T02:44:34;99204.69;;;19.40;98.70
62201;BME280;48197;42.732;27.192;2022-08-20T02:47:01;99205.16;;;19.38;98.73
62201;BME280;48197;42.732;27.192;2022-08-20T02:49:28;99205.03;;;19.32;98.71
62201;BME280;48197;42.732;27.192;2022-08-20T02:51:54;99204.25;;;19.32;98.85
62201;BME280;48197;42.732;27.192;2022-08-20T02:54:21;99205.81;;;19.33;98.60
62201;BME280;48197;42.732;27.192;2022-08-20T02:56:48;99202.81;;;19.36;98.73
62201;BME280;48197;42.732;27.192;2022-08-20T02:59:15;99200.78;;;19.37;98.64
62201;BME280;48197;42.732;27.192;2022-08-20T03:01:43;99205.63;;;19.36;98.55
62201;BME280;48197;42.732;27.192;2022-08-20T03:04:10;99209.19;;;19.37;98.58
62201;BME280;48197;42.732;27.192;2022-08-20T03:06:37;99207.50;;;19.40;98.64
62201;BME280;48197;42.732;27.192;2022-08-20T03:09:04;99201.09;;;19.39;98.47
62201;BME280;48197;42.732;27.192;2022-08-20T03:11:33;99199.25;;;19.36;98.62
62201;BME280;48197;42.732;27.192;2022-08-20T03:14:00;99196.47;;;19.36;98.69
62201;BME280;48197;42.732;27.192;2022-08-20T03:16:26;99199.13;;;19.30;98.65
62201;BME280;48197;42.732;27.192;2022-08-20T03:18:53;99199.34;;;19.27;98.93
62201;BME280;48197;42.732;27.192;2022-08-20T03:21:20;99204.63;;;19.25;99.01
62201;BME280;48197;42.732;27.192;2022-08-20T03:23:47;99205.88;;;19.24;99.18
62201;BME280;48197;42.732;27.192;2022-08-20T03:26:13;99196.69;;;19.23;99.41
62201;BME280;48197;42.732;27.192;2022-08-20T03:28:39;99204.94;;;19.27;99.47
62201;BME280;48197;42.732;27.192;2022-08-20T03:31:06;99204.44;;;19.28;99.53
62201;BME280;48197;42.732;27.192;2022-08-20T03:33:33;99207.84;;;19.32;99.60
62201;BME280;48197;42.732;27.192;2022-08-20T03:36:00;99209.69;;;19.35;99.54
62201;BME280;48197;42.732;27.192;2022-08-20T03:38:27;99210.00;;;19.37;99.36
62201;BME280;48197;42.732;27.192;2022-08-20T03:40:54;99207.97;;;19.38;99.45
62201;BME280;48197;42.732;27.192;2022-08-20T03:43:20;99209.78;;;19.41;99.40
62201;BME280;48197;42.732;27.192;2022-08-20T03:45:47;99213.66;;;19.44;99.28
62201;BME280;48197;42.732;27.192;2022-08-20T03:48:15;99214.16;;;19.42;99.26
62201;BME280;48197;42.732;27.192;2022-08-20T03:50:42;99209.03;;;19.41;99.46
62201;BME280;48197;42.732;27.192;2022-08-20T03:53:10;99210.59;;;19.42;99.55
62201;BME280;48197;42.732;27.192;2022-08-20T03:55:37;99202.47;;;19.44;99.32
62201;BME280;48197;42.732;27.192;2022-08-20T03:58:05;99200.75;;;19.46;99.27
62201;BME280;48197;42.732;27.192;2022-08-20T04:00:34;99201.03;;;19.48;99.03
62201;BME280;48197;42.732;27.192;2022-08-20T04:03:01;99212.06;;;19.52;99.13
62201;BME280;48197;42.732;27.192;2022-08-20T04:05:28;99224.16;;;19.58;98.85
62201;BME280;48197;42.732;27.192;2022-08-20T04:07:56;99217.09;;;19.63;98.70
62201;BME280;48197;42.732;27.192;2022-08-20T04:10:24;99218.22;;;19.65;98.49
62201;BME280;48197;42.732;27.192;2022-08-20T04:12:51;99230.59;;;19.73;98.26
62201;BME280;48197;42.732;27.192;2022-08-20T04:15:18;99235.34;;;19.82;98.02
62201;BME280;48197;42.732;27.192;2022-08-20T04:17:46;99228.94;;;19.91;97.54
62201;BME280;48197;42.732;27.192;2022-08-20T04:20:13;99230.06;;;19.99;97.29
62201;BME280;48197;42.732;27.192;2022-08-20T04:22:40;99235.63;;;20.08;97.07
62201;BME280;48197;42.732;27.192;2022-08-20T04:25:07;99232.72;;;20.17;96.70
62201;BME280;48197;42.732;27.192;2022-08-20T04:27:35;99235.94;;;20.25;96.50
62201;BME280;48197;42.732;27.192;2022-08-20T04:30:03;99234.06;;;20.37;96.12
62201;BME280;48197;42.732;27.192;2022-08-20T04:32:29;99227.59;;;20.46;95.92
62201;BME280;48197;42.732;27.192;2022-08-20T04:34:56;99237.31;;;20.59;95.67
62201;BME280;48197;42.732;27.192;2022-08-20T04:37:23;99227.41;;;20.79;94.96
62201;BME280;48197;42.732;27.192;2022-08-20T04:39:50;99232.56;;;21.01;94.26
62201;BME280;48197;42.732;27.192;2022-08-20T04:42:36;99232.91;;;21.24;93.32
62201;BME280;48197;42.732;27.192;2022-08-20T04:45:03;99237.03;;;21.43;92.55
62201;BME280;48197;42.732;27.192;2022-08-20T04:47:31;99236.47;;;21.59;91.86
62201;BME280;48197;42.732;27.192;2022-08-20T04:49:58;99236.94;;;21.78;90.76
62201;BME280;48197;42.732;27.192;2022-08-20T04:52:27;99236.63;;;21.97;89.92
62201;BME280;48197;42.732;27.192;2022-08-20T04:54:57;99227.59;;;22.13;88.90
62201;BME280;48197;42.732;27.192;2022-08-20T04:57:24;99217.03;;;22.29;88.30
62201;BME280;48197;42.732;27.192;2022-08-20T04:59:52;99222.03;;;22.45;87.51
62201;BME280;48197;42.732;27.192;2022-08-20T05:02:19;99221.63;;;22.58;86.75
62201;BME280;48197;42.732;27.192;2022-08-20T05:04:46;99228.63;;;22.68;85.79
62201;BME280;48197;42.732;27.192;2022-08-20T05:07:14;99232.03;;;22.78;84.98
62201;BME280;48197;42.732;27.192;2022-08-20T05:09:41;99221.38;;;22.93;83.93
62201;BME280;48197;42.732;27.192;2022-08-20T05:12:08;99230.78;;;23.16;83.41
62201;BME280;48197;42.732;27.192;2022-08-20T05:14:34;99226.00;;;23.34;82.52
62201;BME280;48197;42.732;27.192;2022-08-20T05:17:02;99226.81;;;23.46;81.83
62201;BME280;48197;42.732;27.192;2022-08-20T05:19:30;99238.16;;;23.57;81.30
62201;BME280;48197;42.732;27.192;2022-08-20T05:21:58;99229.72;;;23.68;80.41
62201;BME280;48197;42.732;27.192;2022-08-20T05:24:25;99231.88;;;23.84;80.10
62201;BME280;48197;42.732;27.192;2022-08-20T05:26:52;99231.41;;;24.03;79.36
62201;BME280;48197;42.732;27.192;2022-08-20T05:29:21;99237.34;;;24.16;79.05
62201;BME280;48197;42.732;27.192;2022-08-20T05:31:48;99236.59;;;24.33;78.18
62201;BME280;48197;42.732;27.192;2022-08-20T05:34:15;99232.28;;;24.49;77.01
62201;BME280;48197;42.732;27.192;2022-08-20T05:36:42;99237.16;;;24.65;76.56
62201;BME280;48197;42.732;27.192;2022-08-20T05:39:10;99229.97;;;24.92;75.23
62201;BME280;48197;42.732;27.192;2022-08-20T05:41:38;99238.38;;;25.15;73.74
62201;BME280;48197;42.732;27.192;2022-08-20T05:44:06;99234.72;;;25.42;72.66
62201;BME280;48197;42.732;27.192;2022-08-20T05:46:36;99239.50;;;25.70;71.05
62201;BME280;48197;42.732;27.192;2022-08-20T05:49:06;99239.97;;;25.91;69.92
62201;BME280;48197;42.732;27.192;2022-08-20T05:51:33;99237.19;;;26.27;68.25
62201;BME280;48197;42.732;27.192;2022-08-20T05:54:02;99229.13;;;26.73;67.28
62201;BME280;48197;42.732;27.192;2022-08-20T05:56:29;99225.53;;;27.27;65.01
62201;BME280;48197;42.732;27.192;2022-08-20T05:58:56;99227.97;;;27.80;62.85
62201;BME280;48197;42.732;27.192;2022-08-20T06:01:24;99225.91;;;28.18;60.98
62201;BME280;48197;42.732;27.192;2022-08-20T06:03:50;99221.00;;;28.70;59.51
62201;BME280;48197;42.732;27.192;2022-08-20T06:06:36;99219.53;;;29.36;57.27
62201;BME280;48197;42.732;27.192;2022-08-20T06:09:02;99229.56;;;29.90;54.80
62201;BME280;48197;42.732;27.192;2022-08-20T06:11:29;99232.25;;;30.43;52.35
62201;BME280;48197;42.732;27.192;2022-08-20T06:13:56;99229.34;;;30.57;51.72
62201;BME280;48197;42.732;27.192;2022-08-20T06:16:22;99206.78;;;30.24;51.56
62201;BME280;48197;42.732;27.192;2022-08-20T06:18:49;99232.06;;;29.93;52.39
62201;BME280;48197;42.732;27.192;2022-08-20T06:21:15;99234.19;;;29.66;52.99
62201;BME280;48197;42.732;27.192;2022-08-20T06:23:42;99243.63;;;29.75;52.50
62201;BME280;48197;42.732;27.192;2022-08-20T06:26:09;99238.25;;;30.19;51.33
62201;BME280;48197;42.732;27.192;2022-08-20T06:28:36;99239.63;;;30.60;49.35
62201;BME280;48197;42.732;27.192;2022-08-20T06:31:02;99246.66;;;31.01;48.11
62201;BME280;48197;42.732;27.192;2022-08-20T06:33:29;99248.13;;;31.44;47.38
62201;BME280;48197;42.732;27.192;2022-08-20T06:35:56;99239.34;;;31.78;45.39
62201;BME280;48197;42.732;27.192;2022-08-20T06:38:23;99241.38;;;32.06;44.43
62201;BME280;48197;42.732;27.192;2022-08-20T06:40:50;99244.16;;;32.58;43.79
62201;BME280;48197;42.732;27.192;2022-08-20T06:43:17;99234.03;;;33.34;41.77
62201;BME280;48197;42.732;27.192;2022-08-20T06:45:43;99239.88;;;33.59;41.09
62201;BME280;48197;42.732;27.192;2022-08-20T06:48:12;99242.53;;;33.72;40.86
62201;BME280;48197;42.732;27.192;2022-08-20T06:50:41;99244.88;;;34.07;39.09
62201;BME280;48197;42.732;27.192;2022-08-20T06:53:08;99242.81;;;34.00;40.16
62201;BME280;48197;42.732;27.192;2022-08-20T06:55:35;99241.13;;;33.89;39.85
62201;BME280;48197;42.732;27.192;2022-08-20T06:58:03;99247.19;;;34.01;40.08
62201;BME280;48197;42.732;27.192;2022-08-20T07:00:30;99242.34;;;34.11;39.96
62201;BME280;48197;42.732;27.192;2022-08-20T07:02:59;99245.78;;;34.17;38.72
62201;BME280;48197;42.732;27.192;2022-08-20T07:05:30;99238.31;;;34.22;38.58
62201;BME280;48197;42.732;27.192;2022-08-20T07:07:57;99239.50;;;34.44;38.30
62201;BME280;48197;42.732;27.192;2022-08-20T07:10:26;99226.22;;;35.06;37.14
62201;BME280;48197;42.732;27.192;2022-08-20T07:12:53;99234.69;;;35.22;36.15
62201;BME280;48197;42.732;27.192;2022-08-20T07:15:20;99231.69;;;35.12;36.98
62201;BME280;48197;42.732;27.192;2022-08-20T07:17:54;99244.25;;;35.59;35.90
62201;BME280;48197;42.732;27.192;2022-08-20T07:20:21;99226.16;;;36.28;34.00
62201;BME280;48197;42.732;27.192;2022-08-20T07:22:47;99229.13;;;36.85;34.20
62201;BME280;48197;42.732;27.192;2022-08-20T07:25:15;99223.91;;;37.30;32.78
62201;BME280;48197;42.732;27.192;2022-08-20T07:27:43;99220.44;;;37.41;32.17
62201;BME280;48197;42.732;27.192;2022-08-20T07:30:11;99222.72;;;37.52;32.15
62201;BME280;48197;42.732;27.192;2022-08-20T07:32:56;99223.00;;;38.05;31.79
62201;BME280;48197;42.732;27.192;2022-08-20T07:35:23;99225.78;;;38.34;31.82
62201;BME280;48197;42.732;27.192;2022-08-20T07:37:50;99220.59;;;38.43;30.59
62201;BME280;48197;42.732;27.192;2022-08-20T07:49:36;99216.47;;;37.85;30.87
62201;BME280;48197;42.732;27.192;2022-08-20T07:52:41;99215.97;;;38.18;30.42
62201;BME280;48197;42.732;27.192;2022-08-20T07:55:09;99214.34;;;38.56;29.77
62201;BME280;48197;42.732;27.192;2022-08-20T07:57:36;99220.13;;;38.46;29.84
62201;BME280;48197;42.732;27.192;2022-08-20T08:00:06;99212.75;;;38.24;30.43
62201;BME280;48197;42.732;27.192;2022-08-20T08:02:34;99209.47;;;38.58;30.25
62201;BME280;48197;42.732;27.192;2022-08-20T08:05:02;99207.00;;;38.65;29.45
62201;BME280;48197;42.732;27.192;2022-08-20T08:07:28;99195.25;;;39.25;29.15
62201;BME280;48197;42.732;27.192;2022-08-20T08:09:55;99205.31;;;39.46;28.29
62201;BME280;48197;42.732;27.192;2022-08-20T08:24:34;99188.88;;;39.60;27.05
62201;BME280;48197;42.732;27.192;2022-08-20T08:27:01;99180.31;;;39.50;27.51
62201;BME280;48197;42.732;27.192;2022-08-20T08:29:27;99174.81;;;39.11;27.73
62201;BME280;48197;42.732;27.192;2022-08-20T08:31:55;99173.47;;;38.81;28.37
62201;BME280;48197;42.732;27.192;2022-08-20T08:34:20;99179.56;;;38.44;28.74
62201;BME280;48197;42.732;27.192;2022-08-20T08:36:50;99184.00;;;37.85;29.41
62201;BME280;48197;42.732;27.192;2022-08-20T08:39:18;99179.53;;;36.76;30.93
62201;BME280;48197;42.732;27.192;2022-08-20T08:41:47;99172.19;;;37.32;30.27
62201;BME280;48197;42.732;27.192;2022-08-20T08:56:29;99150.97;;;37.37;28.85
62201;BME280;48197;42.732;27.192;2022-08-20T08:58:57;99158.97;;;36.90;30.34
62201;BME280;48197;42.732;27.192;2022-08-20T09:01:26;99157.28;;;36.87;29.86
62201;BME280;48197;42.732;27.192;2022-08-20T09:03:53;99150.66;;;37.52;29.59
62201;BME280;48197;42.732;27.192;2022-08-20T09:06:21;99142.22;;;37.95;28.99
62201;BME280;48197;42.732;27.192;2022-08-20T09:12:02;99151.41;;;37.53;29.07
62201;BME280;48197;42.732;27.192;2022-08-20T09:14:29;99140.94;;;37.67;29.20
62201;BME280;48197;42.732;27.192;2022-08-20T09:16:56;99146.81;;;36.72;30.23
62201;BME280;48197;42.732;27.192;2022-08-20T09:19:23;99140.75;;;36.68;30.34
62201;BME280;48197;42.732;27.192;2022-08-20T09:21:50;99134.91;;;37.24;29.60
62201;BME280;48197;42.732;27.192;2022-08-20T09:24:17;99133.38;;;37.52;29.07
62201;BME280;48197;42.732;27.192;2022-08-20T09:26:43;99127.28;;;37.68;28.85
62201;BME280;48197;42.732;27.192;2022-08-20T09:29:10;99131.81;;;37.80;28.25
62201;BME280;48197;42.732;27.192;2022-08-20T09:31:37;99128.00;;;36.61;29.07
62201;BME280;48197;42.732;27.192;2022-08-20T10:02:29;99102.25;;;37.51;29.22
62201;BME280;48197;42.732;27.192;2022-08-20T10:04:57;99106.72;;;37.32;29.71
62201;BME280;48197;42.732;27.192;2022-08-20T10:07:26;99094.00;;;35.93;32.03
62201;BME280;48197;42.732;27.192;2022-08-20T10:09:53;99107.47;;;34.94;33.22
62201;BME280;48197;42.732;27.192;2022-08-20T10:12:20;99106.88;;;35.13;33.50
62201;BME280;48197;42.732;27.192;2022-08-20T10:14:46;99101.25;;;35.94;33.71
62201;BME280;48197;42.732;27.192;2022-08-20T10:17:13;99101.81;;;36.76;31.37
62201;BME280;48197;42.732;27.192;2022-08-20T10:19:53;99107.47;;;37.13;30.65
62201;BME280;48197;42.732;27.192;2022-08-20T10:22:21;99096.41;;;37.19;30.19
62201;BME280;48197;42.732;27.192;2022-08-20T10:24:48;99104.53;;;37.72;30.07
62201;BME280;48197;42.732;27.192;2022-08-20T10:27:14;99101.34;;;37.68;29.58
62201;BME280;48197;42.732;27.192;2022-08-20T10:29:41;99091.78;;;37.75;28.97
62201;BME280;48197;42.732;27.192;2022-08-20T10:32:09;99091.81;;;37.46;29.29
62201;BME280;48197;42.732;27.192;2022-08-20T10:34:38;99096.50;;;37.51;29.57
62201;BME280;48197;42.732;27.192;2022-08-20T10:37:03;99084.72;;;37.37;30.26
62201;BME280;48197;42.732;27.192;2022-08-20T10:39:30;99085.16;;;36.75;32.11
62201;BME280;48197;42.732;27.192;2022-08-20T10:41:57;99080.13;;;36.66;31.49
62201;BME280;48197;42.732;27.192;2022-08-20T10:44:24;99081.66;;;36.76;31.98
62201;BME280;48197;42.732;27.192;2022-08-20T10:46:51;99085.25;;;36.48;31.05
62201;BME280;48197;42.732;27.192;2022-08-20T10:49:18;99077.09;;;36.54;31.42
62201;BME280;48197;42.732;27.192;2022-08-20T10:51:44;99071.22;;;36.91;30.64
62201;BME280;48197;42.732;27.192;2022-08-20T10:54:11;99076.22;;;37.39;29.57
62201;BME280;48197;42.732;27.192;2022-08-20T10:56:37;99077.09;;;37.51;30.33
62201;BME280;48197;42.732;27.192;2022-08-20T10:59:04;99070.13;;;37.95;30.00
62201;BME280;48197;42.732;27.192;2022-08-20T11:01:29;99064.16;;;38.13;29.64
62201;BME280;48197;42.732;27.192;2022-08-20T11:03:55;99060.34;;;38.20;29.52
62201;BME280;48197;42.732;27.192;2022-08-20T11:06:22;99066.03;;;38.30;28.55
62201;BME280;48197;42.732;27.192;2022-08-20T11:08:49;99062.97;;;38.37;28.71
62201;BME280;48197;42.732;27.192;2022-08-20T11:11:16;99049.97;;;38.91;28.10
62201;BME280;48197;42.732;27.192;2022-08-20T11:13:43;99059.69;;;38.96;27.58
62201;BME280;48197;42.732;27.192;2022-08-20T11:16:10;99048.56;;;38.59;28.32
62201;BME280;48197;42.732;27.192;2022-08-20T11:18:36;99058.53;;;37.74;29.03
62201;BME280;48197;42.732;27.192;2022-08-20T11:21:04;99056.97;;;36.93;30.35
62201;BME280;48197;42.732;27.192;2022-08-20T11:23:30;99054.88;;;37.13;30.80
62201;BME280;48197;42.732;27.192;2022-08-20T11:25:57;99053.56;;;37.65;29.97
62201;BME280;48197;42.732;27.192;2022-08-20T11:28:23;99051.13;;;38.12;29.26
62201;BME280;48197;42.732;27.192;2022-08-20T11:30:50;99046.06;;;38.22;28.77
62201;BME280;48197;42.732;27.192;2022-08-20T11:33:29;99043.38;;;38.36;28.47
62201;BME280;48197;42.732;27.192;2022-08-20T11:35:56;99046.88;;;38.34;28.58
62201;BME280;48197;42.732;27.192;2022-08-20T11:38:22;99044.94;;;38.58;28.64
62201;BME280;48197;42.732;27.192;2022-08-20T11:41:02;99048.09;;;38.63;28.51
62201;BME280;48197;42.732;27.192;2022-08-20T11:43:28;99044.94;;;38.58;28.87
62201;BME280;48197;42.732;27.192;2022-08-20T11:45:55;99041.66;;;38.86;29.32
62201;BME280;48197;42.732;27.192;2022-08-20T11:48:22;99050.13;;;39.27;28.28
62201;BME280;48197;42.732;27.192;2022-08-20T11:50:48;99055.25;;;39.61;27.96
62201;BME280;48197;42.732;27.192;2022-08-20T11:53:15;99056.03;;;40.21;27.40
62201;BME280;48197;42.732;27.192;2022-08-20T11:55:42;99055.41;;;40.11;26.73
62201;BME280;48197;42.732;27.192;2022-08-20T11:58:10;99050.66;;;39.92;27.11
62201;BME280;48197;42.732;27.192;2022-08-20T12:00:38;99053.75;;;39.60;27.87
62201;BME280;48197;42.732;27.192;2022-08-20T12:03:05;99048.00;;;40.08;27.57
62201;BME280;48197;42.732;27.192;2022-08-20T12:05:32;99050.25;;;40.09;27.49
62201;BME280;48197;42.732;27.192;2022-08-20T12:08:02;99049.13;;;39.67;27.98
62201;BME280;48197;42.732;27.192;2022-08-20T12:10:30;99045.16;;;39.06;28.79
62201;BME280;48197;42.732;27.192;2022-08-20T12:12:57;99046.25;;;39.00;29.12
62201;BME280;48197;42.732;27.192;2022-08-20T12:18:34;99035.13;;;38.85;29.44
62201;BME280;48197;42.732;27.192;2022-08-20T12:21:01;99031.25;;;38.59;29.32
62201;BME280;48197;42.732;27.192;2022-08-20T12:38:33;99017.84;;;38.64;29.37
62201;BME280;48197;42.732;27.192;2022-08-20T12:40:59;99026.50;;;38.64;29.71
62201;BME280;48197;42.732;27.192;2022-08-20T12:43:27;99020.91;;;38.34;29.75
62201;BME280;48197;42.732;27.192;2022-08-20T12:45:54;99024.28;;;38.31;29.79
62201;BME280;48197;42.732;27.192;2022-08-20T12:48:20;99013.78;;;38.57;29.41
62201;BME280;48197;42.732;27.192;2022-08-20T12:50:46;99011.94;;;38.62;29.33
62201;BME280;48197;42.732;27.192;2022-08-20T12:53:15;99014.66;;;38.81;29.06
62201;BME280;48197;42.732;27.192;2022-08-20T12:55:42;99010.94;;;38.90;29.11
62201;BME280;48197;42.732;27.192;2022-08-20T12:58:08;99018.06;;;38.89;29.14
62201;BME280;48197;42.732;27.192;2022-08-20T13:00:39;99010.47;;;38.72;29.02
62201;BME280;48197;42.732;27.192;2022-08-20T13:04:39;99007.72;;;38.31;29.48
62201;BME280;48197;42.732;27.192;2022-08-20T13:07:06;99014.66;;;38.16;30.01
62201;BME280;48197;42.732;27.192;2022-08-20T13:21:47;98998.03;;;38.05;30.04
62201;BME280;48197;42.732;27.192;2022-08-20T13:24:14;98999.91;;;38.22;30.29
62201;BME280;48197;42.732;27.192;2022-08-20T13:26:41;99004.81;;;38.10;30.38
62201;BME280;48197;42.732;27.192;2022-08-20T13:29:24;99003.47;;;38.01;29.97
62201;BME280;48197;42.732;27.192;2022-08-20T13:32:13;98999.19;;;37.80;29.94
62201;BME280;48197;42.732;27.192;2022-08-20T13:34:39;99004.00;;;37.47;30.39
62201;BME280;48197;42.732;27.192;2022-08-20T13:37:16;98995.84;;;37.84;30.63
62201;BME280;48197;42.732;27.192;2022-08-20T13:39:42;98998.75;;;37.74;29.87
62201;BME280;48197;42.732;27.192;2022-08-20T13:42:09;98997.69;;;37.19;30.89
62201;BME280;48197;42.732;27.192;2022-08-20T13:44:38;98996.44;;;37.32;31.49
62201;BME280;48197;42.732;27.192;2022-08-20T13:50:12;98987.88;;;37.03;31.00
62201;BME280;48197;42.732;27.192;2022-08-20T13:52:41;98983.19;;;36.88;30.88
62201;BME280;48197;42.732;27.192;2022-08-20T13:55:09;98982.13;;;36.73;31.49
62201;BME280;48197;42.732;27.192;2022-08-20T13:57:36;98983.31;;;36.51;31.77
62201;BME280;48197;42.732;27.192;2022-08-20T14:00:03;98975.28;;;36.20;31.91
62201;BME280;48197;42.732;27.192;2022-08-20T14:02:32;98975.38;;;36.03;31.99
62201;BME280;48197;42.732;27.192;2022-08-20T14:08:09;98961.06;;;35.75;33.07
62201;BME280;48197;42.732;27.192;2022-08-20T14:10:35;98966.50;;;35.71;32.69
62201;BME280;48197;42.732;27.192;2022-08-20T14:13:02;98967.00;;;35.50;33.31
62201;BME280;48197;42.732;27.192;2022-08-20T14:15:28;98973.03;;;35.17;33.79
62201;BME280;48197;42.732;27.192;2022-08-20T14:17:55;98973.91;;;34.93;33.79
62201;BME280;48197;42.732;27.192;2022-08-20T14:20:23;98961.94;;;34.52;34.57
62201;BME280;48197;42.732;27.192;2022-08-20T14:22:51;98963.16;;;34.31;34.91
62201;BME280;48197;42.732;27.192;2022-08-20T14:25:19;98960.19;;;34.22;34.53
62201;BME280;48197;42.732;27.192;2022-08-20T14:27:45;98964.84;;;34.09;35.18
62201;BME280;48197;42.732;27.192;2022-08-20T14:30:13;98963.97;;;34.24;34.66
62201;BME280;48197;42.732;27.192;2022-08-20T14:32:41;98969.47;;;34.05;35.07
62201;BME280;48197;42.732;27.192;2022-08-20T14:35:07;98975.59;;;33.84;35.24
62201;BME280;48197;42.732;27.192;2022-08-20T14:37:35;98964.50;;;33.63;35.51
62201;BME280;48197;42.732;27.192;2022-08-20T14:40:05;98969.72;;;33.49;35.11
62201;BME280;48197;42.732;27.192;2022-08-20T14:42:34;98968.63;;;33.44;35.47
62201;BME280;48197;42.732;27.192;2022-08-20T14:45:01;98964.22;;;33.43;35.57
62201;BME280;48197;42.732;27.192;2022-08-20T14:47:31;98967.22;;;33.53;35.93
62201;BME280;48197;42.732;27.192;2022-08-20T15:02:11;98947.50;;;33.32;35.05